< < Back
Terminal Aerodrome Forecast


Current Version              Previous Versions:   1  2  3  4  5  6  7  8  9  

Terminal Aerodrome Forecast

057
FTUS44 KBMX 051724
TAFANB
TAF
KANB 051724Z 0518/0618 36011KT P6SM SKC
     FM052300 00000KT P6SM SKC=



Latest METAR

717
SAUS70 KWBC 060700 RRG
MTRANB
METAR KANB 060653Z AUTO 00000KT 10SM CLR M01/M04 A3039 RMK AO2 SLP300
T10061044


USA.gov is the U.S. government's official web portal to all federal, state and local government web resources and services.